Time;durP1;ratioP1;P1;durP2;ratioP2;P2;SDS_P1;SDS_P2;PMS_P1;PMS_P2;Temp;Humidity;BMP_temperature;BMP_pressure;BME280_temperature;BME280_humidity;BME280_pressure;Samples;Min_cycle;Max_cycle;Signal;HPM_P1;HPM_P2
2022/09/30 00:01:08;;;;;;;6.53;1.60;;;18.30;99.90;;;;;;5074934;28;20404;-82
2022/09/30 00:03:38;;;;;;;5.05;1.48;;;18.30;99.90;;;;;;5075273;28;20834;-84
2022/09/30 00:06:06;;;;;;;9.90;1.70;;;18.30;99.90;;;;;;5072299;28;20394;-83
2022/09/30 00:08:33;;;;;;;8.00;1.77;;;18.40;99.90;;;;;;5076379;28;20377;-82
2022/09/30 00:11:03;;;;;;;9.65;1.98;;;18.50;99.90;;;;;;5075840;28;20870;-82
2022/09/30 00:13:40;;;;;;;10.57;2.07;;;18.50;99.90;;;;;;5072098;28;20463;-80
2022/09/30 00:16:09;;;;;;;5.97;1.58;;;18.70;99.90;;;;;;5071546;28;20385;-82
2022/09/30 00:18:36;;;;;;;9.25;1.80;;;18.50;99.90;;;;;;5071233;28;20389;-83
2022/09/30 00:21:05;;;;;;;15.80;2.33;;;18.30;99.90;;;;;;5071532;28;20401;-82
2022/09/30 00:23:32;;;;;;;14.20;2.15;;;18.50;99.90;;;;;;5057912;28;20373;-82
2022/09/30 00:26:01;;;;;;;11.27;1.88;;;18.80;99.90;;;;;;5071414;28;20386;-81
2022/09/30 00:28:29;;;;;;;9.20;2.00;;;19.00;99.90;;;;;;5071892;28;20371;-82
2022/09/30 00:31:00;;;;;;;13.57;2.10;;;19.10;99.90;;;;;;5072317;28;20866;-82
2022/09/30 00:33:27;;;;;;;5.50;1.65;;;19.00;99.90;;;;;;5069743;28;20388;-82
2022/09/30 00:35:54;;;;;;;11.93;2.00;;;18.70;99.90;;;;;;5057812;28;20436;-81
2022/09/30 00:38:21;;;;;;;7.00;1.87;;;18.40;99.90;;;;;;5071223;28;20722;-82
2022/09/30 00:40:50;;;;;;;8.07;2.10;;;18.20;99.90;;;;;;5071451;28;20821;-84
2022/09/30 00:43:36;;;;;;;8.27;2.03;;;18.20;99.90;;;;;;5080389;28;20849;-80
2022/09/30 00:46:05;;;;;;;8.67;1.97;;;18.30;99.90;;;;;;5074932;28;20479;-82
2022/09/30 00:48:38;;;;;;;8.35;2.40;;;18.60;99.90;;;;;;5079303;28;20477;-81
2022/09/30 00:51:06;;;;;;;9.50;2.10;;;18.90;99.90;;;;;;5078360;28;20849;-83
2022/09/30 00:53:44;;;;;;;7.37;2.13;;;19.00;99.90;;;;;;5071431;28;21222;-81
2022/09/30 00:56:19;;;;;;;9.27;2.22;;;18.80;99.90;;;;;;5071501;28;20419;-82
2022/09/30 00:58:48;;;;;;;10.00;2.20;;;18.60;99.50;;;;;;5053400;28;20789;-82
2022/09/30 01:01:16;;;;;;;9.65;2.20;;;18.40;99.70;;;;;;5071842;28;20370;-81
2022/09/30 01:04:01;;;;;;;11.13;2.47;;;18.30;99.90;;;;;;5075901;28;20386;-83
2022/09/30 01:06:29;;;;;;;10.75;2.65;;;18.30;99.90;;;;;;5071404;28;20457;-83
2022/09/30 01:08:57;;;;;;;10.13;2.40;;;18.30;99.90;;;;;;5071380;28;20374;-83
2022/09/30 01:11:26;;;;;;;9.35;2.40;;;18.40;99.90;;;;;;5071754;28;20392;-82
2022/09/30 01:13:56;;;;;;;15.55;2.70;;;18.60;99.90;;;;;;5071164;28;20378;-82
2022/09/30 01:16:47;;;;;;;9.95;2.45;;;18.90;99.90;;;;;;5072009;28;20370;-82
2022/09/30 01:19:24;;;;;;;13.80;2.50;;;19.40;99.90;;;;;;5074456;28;20397;-82
2022/09/30 01:22:18;;;;;;;9.15;2.30;;;19.80;98.90;;;;;;5063753;28;20406;-81
2022/09/30 01:24:54;;;;;;;10.65;2.35;;;19.80;97.10;;;;;;5075254;28;20420;-81
2022/09/30 01:27:30;;;;;;;11.68;2.30;;;19.80;97.40;;;;;;5077378;28;20390;-81
2022/09/30 01:30:39;;;;;;;7.55;2.00;;;19.70;96.70;;;;;;5080047;28;20794;-81
2022/09/30 01:33:44;;;;;;;10.18;2.00;;;19.90;95.50;;;;;;5076953;28;20358;-81
2022/09/30 01:36:22;;;;;;;8.97;2.30;;;20.20;95.40;;;;;;5039383;28;20424;-82
2022/09/30 01:39:09;;;;;;;6.63;1.92;;;21.10;94.90;;;;;;5047495;28;20406;-81
2022/09/30 01:41:59;;;;;;;10.05;2.15;;;21.60;92.10;;;;;;5045180;28;20394;-81
2022/09/30 01:44:57;;;;;;;12.37;2.40;;;21.90;90.30;;;;;;5030423;28;20395;-81
2022/09/30 01:47:35;;;;;;;9.75;2.20;;;22.10;89.80;;;;;;5041690;28;20385;-82
2022/09/30 01:50:35;;;;;;;8.63;2.13;;;21.60;87.30;;;;;;5043214;28;20402;-83
2022/09/30 01:53:28;;;;;;;7.28;2.15;;;20.90;90.20;;;;;;5009964;28;20850;-84
2022/09/30 01:56:08;;;;;;;13.40;2.28;;;20.30;91.60;;;;;;5012152;28;20402;-81
2022/09/30 01:59:07;;;;;;;8.30;2.30;;;19.90;93.10;;;;;;5010130;28;20395;-83
2022/09/30 02:01:46;;;;;;;11.13;2.30;;;19.70;92.90;;;;;;4931715;29;20386;-82
2022/09/30 02:04:23;;;;;;;10.50;2.20;;;19.60;93.50;;;;;;4931151;29;20429;-82
2022/09/30 02:06:56;;;;;;;7.90;2.10;;;19.70;92.90;;;;;;4922859;29;20903;-80
2022/09/30 02:09:49;;;;;;;9.23;2.30;;;19.80;92.90;;;;;;4927153;29;20398;-82
2022/09/30 02:12:19;;;;;;;9.90;2.13;;;19.80;94.00;;;;;;4914766;29;20818;-82
2022/09/30 02:14:53;;;;;;;10.43;2.47;;;19.50;97.30;;;;;;4931172;29;20398;-82
2022/09/30 02:17:26;;;;;;;9.65;2.35;;;19.20;98.60;;;;;;4930864;29;20390;-82
2022/09/30 02:20:06;;;;;;;9.25;2.15;;;19.00;99.30;;;;;;4930709;29;20457;-81
2022/09/30 02:22:43;;;;;;;8.25;2.28;;;19.10;98.10;;;;;;4923667;29;20422;-81
2022/09/30 02:25:17;;;;;;;9.73;2.10;;;19.70;97.00;;;;;;4933043;29;20818;-82
2022/09/30 02:27:50;;;;;;;8.68;2.10;;;20.80;93.60;;;;;;4942496;28;20389;-82
2022/09/30 02:30:18;;;;;;;7.03;1.83;;;21.30;92.20;;;;;;4992688;28;20451;-83
2022/09/30 02:33:01;;;;;;;8.20;1.90;;;21.70;90.50;;;;;;4992844;28;20811;-81
2022/09/30 02:35:56;;;;;;;8.43;2.08;;;22.00;86.70;;;;;;4992041;28;20393;-80
2022/09/30 02:38:35;;;;;;;7.63;1.80;;;22.70;84.30;;;;;;5042676;28;20895;-83
2022/09/30 02:41:09;;;;;;;7.38;2.17;;;24.20;78.50;;;;;;5068444;28;20377;-80
2022/09/30 02:43:40;;;;;;;8.88;2.03;;;25.60;71.20;;;;;;5073577;28;20741;-82
2022/09/30 02:46:26;;;;;;;7.70;2.00;;;25.20;68.80;;;;;;5071880;28;20406;-81
2022/09/30 02:49:16;;;;;;;11.60;2.33;;;23.90;68.00;;;;;;5079419;28;20408;-81
2022/09/30 02:51:56;;;;;;;13.50;2.40;;;22.30;72.80;;;;;;5073129;28;20744;-81
2022/09/30 02:54:44;;;;;;;9.97;2.37;;;22.30;76.80;;;;;;5073381;28;20742;-81
2022/09/30 02:57:17;;;;;;;16.77;2.63;;;22.60;75.30;;;;;;5072925;28;20831;-80
2022/09/30 02:59:51;;;;;;;12.05;2.35;;;22.10;74.70;;;;;;5070487;28;20489;-82
2022/09/30 03:02:18;;;;;;;13.73;2.13;;;22.20;74.90;;;;;;5078019;28;20432;-81
2022/09/30 03:04:48;;;;;;;9.65;2.17;;;22.80;73.50;;;;;;5068759;28;20405;-80
2022/09/30 03:07:15;;;;;;;8.75;2.20;;;23.10;70.90;;;;;;5072945;28;20374;-82
2022/09/30 03:09:42;;;;;;;14.18;2.50;;;23.10;71.20;;;;;;5073371;28;20378;-81
2022/09/30 03:12:50;;;;;;;8.45;2.05;;;22.30;70.60;;;;;;5081367;28;20382;-81
2022/09/30 03:15:51;;;;;;;8.27;2.10;;;21.20;73.30;;;;;;5067670;28;20455;-78
2022/09/30 03:18:47;;;;;;;7.77;2.07;;;20.50;77.00;;;;;;5075858;28;20725;-79
2022/09/30 03:21:52;;;;;;;9.43;2.00;;;20.00;78.20;;;;;;5078382;28;20462;-82
2022/09/30 03:24:46;;;;;;;8.20;2.00;;;19.80;80.40;;;;;;5078782;28;20472;-80
2022/09/30 03:27:21;;;;;;;9.45;2.13;;;19.70;82.10;;;;;;5075849;28;20442;-82
2022/09/30 03:30:08;;;;;;;10.15;2.20;;;19.70;82.70;;;;;;5074955;28;20435;-81
2022/09/30 03:32:38;;;;;;;8.55;2.00;;;19.90;82.80;;;;;;5085668;28;20413;-80
2022/09/30 03:35:15;;;;;;;7.55;2.10;;;20.10;84.00;;;;;;5072958;28;20398;-81
2022/09/30 03:38:01;;;;;;;8.00;2.10;;;20.40;82.50;;;;;;5072426;28;20393;-80
2022/09/30 03:40:53;;;;;;;7.55;2.00;;;21.00;82.30;;;;;;5072617;28;20456;-81
2022/09/30 03:43:32;;;;;;;8.30;2.10;;;21.80;78.20;;;;;;5072767;28;20397;-81
2022/09/30 03:46:10;;;;;;;7.03;2.05;;;22.20;75.20;;;;;;5072896;28;20405;-81
2022/09/30 03:48:39;;;;;;;8.63;2.03;;;22.20;73.40;;;;;;5072284;28;20382;-81
2022/09/30 03:51:08;;;;;;;6.72;1.80;;;22.10;72.60;;;;;;5072137;28;20780;-82
2022/09/30 03:53:41;;;;;;;7.10;1.70;;;22.10;74.50;;;;;;5077670;28;20411;-82
2022/09/30 03:56:08;;;;;;;8.85;1.98;;;22.00;75.00;;;;;;5055460;28;20750;-81
2022/09/30 03:58:40;;;;;;;8.65;2.05;;;21.90;75.00;;;;;;5072831;28;20374;-82
2022/09/30 04:01:23;;;;;;;8.67;2.10;;;21.80;76.10;;;;;;5072064;28;20393;-80
2022/09/30 04:03:51;;;;;;;7.85;1.90;;;21.30;78.00;;;;;;5072552;28;20873;-83
2022/09/30 04:06:21;;;;;;;7.40;1.90;;;21.20;79.70;;;;;;5071795;28;20378;-82
2022/09/30 04:08:49;;;;;;;7.28;1.77;;;21.20;78.90;;;;;;5054361;28;20386;-81
2022/09/30 04:11:16;;;;;;;4.28;1.35;;;21.30;83.40;;;;;;5071612;28;20487;-82
2022/09/30 04:13:43;;;;;;;5.13;1.33;;;22.40;83.90;;;;;;5071591;28;20883;-81
2022/09/30 04:16:11;;;;;;;4.95;1.30;;;23.20;79.30;;;;;;5072346;28;20362;-82
2022/09/30 04:18:38;;;;;;;6.00;1.70;;;23.20;76.80;;;;;;5072658;28;20377;-81
2022/09/30 04:21:11;;;;;;;7.18;1.67;;;23.00;78.00;;;;;;5071440;28;20492;-82
2022/09/30 04:23:39;;;;;;;5.10;1.50;;;22.60;77.50;;;;;;5071863;28;20738;-81
2022/09/30 04:26:09;;;;;;;5.97;1.40;;;22.20;79.50;;;;;;5071026;28;21079;-81
2022/09/30 04:28:38;;;;;;;6.85;1.75;;;21.70;80.00;;;;;;5076466;28;20401;-79
2022/09/30 04:31:06;;;;;;;6.60;1.58;;;21.30;82.30;;;;;;5062137;28;20855;-82
2022/09/30 04:33:33;;;;;;;5.82;1.80;;;21.00;83.80;;;;;;5076507;28;20362;-83
2022/09/30 04:36:01;;;;;;;5.03;1.60;;;20.80;86.70;;;;;;5070644;28;20465;-83
2022/09/30 04:38:28;;;;;;;6.28;1.75;;;21.80;87.40;;;;;;5071678;28;20374;-80
2022/09/30 04:40:56;;;;;;;7.23;1.83;;;23.40;81.20;;;;;;5075798;28;20451;-81
2022/09/30 04:43:24;;;;;;;9.50;2.10;;;24.40;76.70;;;;;;5074445;28;20385;-82
2022/09/30 04:45:53;;;;;;;5.80;1.77;;;25.10;72.50;;;;;;5075218;28;20440;-82
2022/09/30 04:48:21;;;;;;;6.97;1.95;;;25.50;76.30;;;;;;5084206;28;20428;-81
2022/09/30 04:50:48;;;;;;;6.63;1.90;;;25.10;74.00;;;;;;5079337;28;20388;-82
2022/09/30 04:53:16;;;;;;;7.05;1.90;;;23.60;77.20;;;;;;5072220;28;20374;-81
2022/09/30 04:55:44;;;;;;;8.30;2.00;;;22.20;82.40;;;;;;5073141;28;20443;-80
2022/09/30 04:58:11;;;;;;;5.30;1.48;;;21.30;87.30;;;;;;5071373;28;20447;-81
2022/09/30 05:00:39;;;;;;;5.32;1.50;;;21.40;89.20;;;;;;5071613;28;20896;-80
2022/09/30 05:03:06;;;;;;;5.75;1.40;;;22.20;86.50;;;;;;5068382;28;21181;-81
2022/09/30 05:05:33;;;;;;;7.25;1.60;;;22.30;84.30;;;;;;5071325;28;20405;-81
2022/09/30 05:08:05;;;;;;;4.13;1.33;;;21.80;85.90;;;;;;5072838;28;20409;-82
2022/09/30 05:10:34;;;;;;;6.78;1.50;;;21.20;89.00;;;;;;5076543;28;20382;-82
2022/09/30 05:13:02;;;;;;;7.47;1.65;;;20.40;90.70;;;;;;5075343;28;20386;-82
2022/09/30 05:15:29;;;;;;;7.65;1.52;;;19.90;93.30;;;;;;5076005;28;20409;-80
2022/09/30 05:17:57;;;;;;;9.87;1.90;;;19.50;95.50;;;;;;5074345;28;20397;-83
2022/09/30 05:20:24;;;;;;;4.55;1.50;;;19.40;96.60;;;;;;5075467;28;20408;-81
2022/09/30 05:22:56;;;;;;;7.15;1.70;;;19.50;97.80;;;;;;5084693;28;20728;-82
2022/09/30 05:25:24;;;;;;;5.85;1.50;;;19.50;97.50;;;;;;5075961;28;20370;-80
2022/09/30 05:27:51;;;;;;;7.83;1.70;;;19.40;98.10;;;;;;5074240;28;20393;-81
2022/09/30 05:30:18;;;;;;;7.47;1.70;;;19.40;98.20;;;;;;5076413;28;20476;-80
2022/09/30 05:32:45;;;;;;;8.32;1.75;;;19.40;98.40;;;;;;5074414;28;20436;-81
2022/09/30 05:35:15;;;;;;;7.88;1.95;;;20.20;97.50;;;;;;5085814;28;20844;-81
2022/09/30 05:37:42;;;;;;;7.47;1.70;;;20.80;94.90;;;;;;5074372;28;20874;-75
2022/09/30 05:40:09;;;;;;;6.50;1.57;;;20.80;94.90;;;;;;5075681;28;20786;-81
2022/09/30 05:42:37;;;;;;;6.63;1.80;;;21.60;94.00;;;;;;5073114;28;20715;-84
2022/09/30 05:45:05;;;;;;;7.38;1.70;;;22.80;92.60;;;;;;5075150;28;20425;-81
2022/09/30 05:47:33;;;;;;;8.30;1.60;;;23.80;87.50;;;;;;5070881;28;20722;-82
2022/09/30 05:50:02;;;;;;;6.53;1.50;;;24.00;83.90;;;;;;5073874;28;20385;-81
2022/09/30 05:52:29;;;;;;;5.90;1.40;;;23.30;81.40;;;;;;5072214;28;20800;-81
2022/09/30 05:54:59;;;;;;;3.17;1.10;;;22.60;82.50;;;;;;5074285;28;20390;-79
2022/09/30 05:57:30;;;;;;;4.20;1.00;;;21.70;83.70;;;;;;5073336;28;20485;-79
2022/09/30 05:59:58;;;;;;;4.47;1.23;;;20.90;87.80;;;;;;5073074;28;20919;-84
2022/09/30 06:02:25;;;;;;;7.07;1.20;;;20.60;90.00;;;;;;5077218;28;20497;-80
2022/09/30 06:04:52;;;;;;;3.40;1.10;;;20.50;90.40;;;;;;5077438;28;20378;-81
2022/09/30 06:07:19;;;;;;;4.53;1.05;;;20.40;91.10;;;;;;5078374;28;20381;-79
2022/09/30 06:09:47;;;;;;;7.80;1.27;;;19.80;92.60;;;;;;5078437;28;20393;-83
2022/09/30 06:12:15;;;;;;;6.43;1.40;;;19.40;94.50;;;;;;5076172;28;20462;-79
2022/09/30 06:14:42;;;;;;;7.35;1.40;;;19.10;97.00;;;;;;5075321;28;20865;-82
2022/09/30 06:17:09;;;;;;;8.10;1.35;;;18.70;98.90;;;;;;5074997;28;20386;-80
2022/09/30 06:19:36;;;;;;;9.48;1.60;;;18.40;99.90;;;;;;5077507;28;20413;-77
2022/09/30 06:22:05;;;;;;;7.05;1.20;;;18.30;99.90;;;;;;5074744;28;20405;-80
2022/09/30 06:24:32;;;;;;;3.90;0.87;;;18.20;99.90;;;;;;5077812;28;20385;-80
2022/09/30 06:27:00;;;;;;;3.00;0.90;;;18.80;99.90;;;;;;5058910;28;20386;-80
2022/09/30 06:29:27;;;;;;;3.93;0.90;;;18.90;97.90;;;;;;5077118;28;20374;-79
2022/09/30 06:31:55;;;;;;;3.97;1.00;;;18.80;97.30;;;;;;5058668;28;20445;-80
2022/09/30 06:34:22;;;;;;;4.90;1.10;;;19.00;97.70;;;;;;5047806;28;20382;-78
2022/09/30 06:36:52;;;;;;;2.85;0.90;;;19.50;95.70;;;;;;5080739;28;20385;-81
2022/09/30 06:39:19;;;;;;;3.33;0.93;;;19.10;95.40;;;;;;5071757;28;20406;-81
2022/09/30 06:41:47;;;;;;;3.28;1.00;;;18.80;96.60;;;;;;5081414;28;20390;-87
2022/09/30 06:44:14;;;;;;;3.15;1.05;;;18.50;97.80;;;;;;5076452;28;20406;-82
2022/09/30 06:46:41;;;;;;;5.35;1.25;;;18.30;99.30;;;;;;5081146;28;20386;-79
2022/09/30 06:49:08;;;;;;;5.03;1.30;;;18.10;99.90;;;;;;5083643;28;20799;-78
2022/09/30 06:51:36;;;;;;;6.65;1.27;;;17.90;99.90;;;;;;5083577;28;20753;-84
2022/09/30 06:54:03;;;;;;;6.57;1.40;;;18.10;99.90;;;;;;5078170;28;20380;-82
2022/09/30 06:56:30;;;;;;;4.93;1.35;;;18.30;99.90;;;;;;5076259;28;20814;-80
2022/09/30 06:58:57;;;;;;;4.35;1.45;;;18.90;99.90;;;;;;5076303;28;20393;-78
2022/09/30 07:01:26;;;;;;;4.85;1.58;;;19.20;99.90;;;;;;5070564;28;20893;-83
2022/09/30 07:03:56;;;;;;;4.65;1.50;;;18.90;99.90;;;;;;5074850;28;20438;-81
2022/09/30 07:06:28;;;;;;;5.07;1.48;;;18.60;99.90;;;;;;5074516;28;20425;-81
2022/09/30 07:08:55;;;;;;;5.63;1.50;;;18.40;99.90;;;;;;5074327;28;20397;-80
2022/09/30 07:11:23;;;;;;;5.95;1.65;;;18.20;99.90;;;;;;5071491;28;20377;-82
2022/09/30 07:13:50;;;;;;;5.82;1.48;;;18.00;99.90;;;;;;5081483;28;20365;-79
2022/09/30 07:16:20;;;;;;;5.63;1.55;;;17.80;99.90;;;;;;5075675;28;20461;-82
2022/09/30 07:18:47;;;;;;;5.20;1.48;;;17.70;99.90;;;;;;5073803;28;20397;-80
2022/09/30 07:21:15;;;;;;;4.80;1.50;;;17.50;99.90;;;;;;5074172;28;20390;-83
2022/09/30 07:23:46;;;;;;;6.78;1.50;;;17.20;99.90;;;;;;5074613;28;20851;-83
2022/09/30 07:26:19;;;;;;;6.53;1.80;;;17.10;99.90;;;;;;5074285;28;20402;-82
2022/09/30 07:28:47;;;;;;;5.03;1.45;;;17.00;99.90;;;;;;5073378;28;20386;-81
2022/09/30 07:31:23;;;;;;;5.53;1.65;;;16.90;99.90;;;;;;5073920;28;20385;-83
2022/09/30 07:33:51;;;;;;;6.63;1.88;;;16.80;99.90;;;;;;5059978;28;20920;-82
2022/09/30 07:36:25;;;;;;;6.30;1.80;;;16.80;99.90;;;;;;5072516;28;20393;-85
2022/09/30 07:38:53;;;;;;;7.03;2.20;;;16.70;99.90;;;;;;5072404;28;20484;-82
2022/09/30 07:41:26;;;;;;;6.07;1.70;;;16.70;99.90;;;;;;5072620;28;20386;-80
2022/09/30 07:43:58;;;;;;;7.57;1.85;;;16.60;99.90;;;;;;5072059;28;20738;-81
2022/09/30 07:46:34;;;;;;;6.82;2.10;;;16.60;99.90;;;;;;5073712;28;20385;-81
2022/09/30 07:49:04;;;;;;;6.80;1.95;;;16.50;99.90;;;;;;5074128;28;20804;-82
2022/09/30 07:51:37;;;;;;;7.22;2.05;;;16.30;99.90;;;;;;5073286;28;20400;-82
2022/09/30 07:54:11;;;;;;;7.90;2.53;;;16.00;99.90;;;;;;5072121;28;20421;-81
2022/09/30 07:56:39;;;;;;;7.88;2.38;;;15.80;99.90;;;;;;5070764;28;20390;-83
2022/09/30 07:59:06;;;;;;;7.30;1.90;;;15.60;99.90;;;;;;5072609;28;20394;-82
2022/09/30 08:01:34;;;;;;;7.40;2.57;;;15.50;99.90;;;;;;5072909;28;20382;-83
2022/09/30 08:04:05;;;;;;;11.68;2.97;;;15.40;99.90;;;;;;5072682;28;20404;-79
2022/09/30 08:06:36;;;;;;;10.63;2.50;;;15.30;99.90;;;;;;5073285;28;20386;-85
2022/09/30 08:09:03;;;;;;;7.53;2.05;;;15.30;99.90;;;;;;5073286;28;20452;-81
2022/09/30 08:11:34;;;;;;;5.82;1.65;;;15.10;99.90;;;;;;5071992;28;20390;-81
2022/09/30 08:14:01;;;;;;;5.95;1.50;;;15.00;99.90;;;;;;5073930;28;20378;-76
2022/09/30 08:16:28;;;;;;;6.97;1.60;;;14.90;99.90;;;;;;5072619;28;20383;-79
2022/09/30 08:18:56;;;;;;;6.50;1.80;;;14.70;99.90;;;;;;5075429;28;20390;-78
2022/09/30 08:21:23;;;;;;;7.57;1.90;;;14.60;99.90;;;;;;5075077;28;20382;-84
2022/09/30 08:23:50;;;;;;;7.60;1.88;;;14.60;99.90;;;;;;5073145;28;20715;-80
2022/09/30 08:26:18;;;;;;;9.15;2.30;;;14.60;99.90;;;;;;5073255;28;20446;-80
2022/09/30 08:28:47;;;;;;;10.53;2.27;;;14.60;99.90;;;;;;5073020;28;20382;-85
2022/09/30 08:31:19;;;;;;;10.70;2.55;;;14.60;99.90;;;;;;5072634;28;20749;-78
2022/09/30 08:33:47;;;;;;;9.38;2.70;;;14.50;99.90;;;;;;5072199;28;20386;-78
2022/09/30 08:36:20;;;;;;;10.43;2.88;;;14.40;99.90;;;;;;5071190;28;20398;-76
2022/09/30 08:38:47;;;;;;;9.25;3.15;;;14.40;99.90;;;;;;5071556;28;20367;-78
2022/09/30 08:41:38;;;;;;;10.00;3.27;;;14.40;99.90;;;;;;5071801;28;20869;-77
2022/09/30 08:44:20;;;;;;;10.57;2.85;;;14.30;99.90;;;;;;5067035;28;20757;-80
2022/09/30 08:47:28;;;;;;;11.82;3.05;;;14.30;99.90;;;;;;5070372;28;20719;-79
2022/09/30 08:50:16;;;;;;;16.70;4.87;;;14.30;99.90;;;;;;5065774;28;20382;-79
2022/09/30 08:52:49;;;;;;;13.65;3.75;;;14.30;99.90;;;;;;5072739;28;20392;-76
2022/09/30 08:55:26;;;;;;;9.98;2.67;;;14.30;99.90;;;;;;5071804;28;20449;-79
2022/09/30 08:57:55;;;;;;;8.10;2.33;;;14.30;99.90;;;;;;5070566;28;20385;-81
2022/09/30 09:00:23;;;;;;;9.48;4.55;;;14.30;99.90;;;;;;5073624;28;20402;-80
2022/09/30 09:03:00;;;;;;;14.05;3.55;;;14.30;99.90;;;;;;5072074;28;20382;-80
2022/09/30 09:05:51;;;;;;;9.25;3.50;;;14.30;99.90;;;;;;5071854;28;20382;-81
2022/09/30 09:08:40;;;;;;;12.43;3.20;;;14.20;99.90;;;;;;5070799;28;20796;-79
2022/09/30 09:11:16;;;;;;;11.93;3.40;;;14.20;99.90;;;;;;5067783;28;20889;-83
2022/09/30 09:14:29;;;;;;;12.37;3.10;;;14.00;99.90;;;;;;5070437;28;20386;-83
2022/09/30 09:17:24;;;;;;;13.80;3.58;;;14.00;99.90;;;;;;4993826;28;20461;-83
2022/09/30 09:20:19;;;;;;;18.67;4.03;;;13.90;99.90;;;;;;4995419;28;21103;-81
2022/09/30 09:22:47;;;;;;;24.45;4.40;;;13.80;99.90;;;;;;4974753;28;21468;-81
2022/09/30 09:25:20;;;;;;;27.08;5.20;;;13.70;99.90;;;;;;4994410;28;20407;-81
2022/09/30 09:27:56;;;;;;;22.05;4.78;;;13.70;99.90;;;;;;4990443;28;20392;-83
2022/09/30 09:30:27;;;;;;;22.48;5.20;;;13.60;99.90;;;;;;4989289;28;20380;-80
2022/09/30 09:32:57;;;;;;;25.30;5.15;;;13.60;99.90;;;;;;4991736;28;20432;-79
2022/09/30 09:35:44;;;;;;;25.00;5.05;;;13.60;99.90;;;;;;4994984;28;20408;-76
2022/09/30 09:38:34;;;;;;;26.40;5.20;;;13.60;99.90;;;;;;4989725;28;20393;-79
2022/09/30 09:41:10;;;;;;;23.83;5.10;;;13.60;99.90;;;;;;4989955;28;20733;-77
2022/09/30 09:43:57;;;;;;;25.95;5.05;;;13.60;99.90;;;;;;4989193;28;20400;-80
2022/09/30 09:46:41;;;;;;;20.90;4.90;;;13.60;99.90;;;;;;4989078;28;20433;-80
2022/09/30 09:49:19;;;;;;;23.45;4.88;;;13.60;99.90;;;;;;4967508;28;20419;-83
2022/09/30 09:52:05;;;;;;;23.77;4.90;;;13.60;99.90;;;;;;4993601;28;20385;-82
2022/09/30 09:54:37;;;;;;;28.10;5.80;;;13.60;99.90;;;;;;5061371;28;20394;-82
2022/09/30 09:57:16;;;;;;;26.13;5.50;;;13.60;99.90;;;;;;5058378;28;20397;-82
2022/09/30 10:03:19;;;;;;;27.20;5.43;;;13.60;99.90;;;;;;5070641;28;20392;-80
2022/09/30 10:06:13;;;;;;;28.63;7.73;;;13.60;99.90;;;;;;5066753;28;20378;-83
2022/09/30 10:08:53;;;;;;;26.63;6.18;;;13.50;99.90;;;;;;5067241;28;20398;-76
2022/09/30 10:11:26;;;;;;;27.58;6.25;;;13.50;99.90;;;;;;5068352;28;20456;-78
2022/09/30 10:13:58;;;;;;;28.40;7.70;;;13.60;99.90;;;;;;5072454;28;20443;-83
2022/09/30 10:16:44;;;;;;;31.58;10.23;;;13.60;99.90;;;;;;5069816;28;20382;-80
2022/09/30 10:19:26;;;;;;;32.30;10.48;;;13.60;99.90;;;;;;5069618;28;20389;-76
2022/09/30 10:22:08;;;;;;;34.57;9.50;;;13.60;99.90;;;;;;5055816;28;20455;-82
2022/09/30 10:24:37;;;;;;;31.38;7.80;;;13.60;99.90;;;;;;5070975;28;20371;-77
2022/09/30 10:27:24;;;;;;;34.03;7.72;;;13.60;99.90;;;;;;5070517;28;20397;-82
2022/09/30 10:29:51;;;;;;;30.90;6.75;;;13.50;99.90;;;;;;5016464;28;20398;-83
2022/09/30 10:32:19;;;;;;;27.83;6.00;;;13.60;99.90;;;;;;5071217;28;20394;-81
2022/09/30 10:34:53;;;;;;;31.40;5.67;;;13.60;99.90;;;;;;5068501;28;20386;-77
2022/09/30 10:37:23;;;;;;;32.25;7.18;;;13.50;99.90;;;;;;5069688;28;20749;-77
2022/09/30 10:40:00;;;;;;;30.30;9.90;;;13.60;99.90;;;;;;5070301;28;20390;-79
2022/09/30 10:42:33;;;;;;;38.28;6.22;;;13.60;99.90;;;;;;5074159;28;20386;-76
2022/09/30 10:45:08;;;;;;;34.97;6.63;;;13.50;99.90;;;;;;5056993;28;20390;-80
2022/09/30 10:47:42;;;;;;;37.72;7.25;;;13.60;99.90;;;;;;5074010;28;20448;-75
2022/09/30 10:50:16;;;;;;;39.28;8.10;;;13.50;99.90;;;;;;5072289;28;20459;-77
2022/09/30 10:52:57;;;;;;;37.95;7.70;;;13.50;99.90;;;;;;5072993;28;21066;-82
2022/09/30 10:55:40;;;;;;;33.80;6.57;;;13.40;99.90;;;;;;5077264;28;20854;-79
2022/09/30 10:58:40;;;;;;;33.47;6.00;;;13.40;99.90;;;;;;5064593;28;20377;-80
2022/09/30 11:01:31;;;;;;;28.60;5.75;;;13.40;99.90;;;;;;5063667;28;20374;-78
2022/09/30 11:04:26;;;;;;;33.35;5.60;;;13.30;99.90;;;;;;5073140;28;20788;-76
2022/09/30 11:07:13;;;;;;;29.33;5.13;;;13.20;99.90;;;;;;5072461;28;20425;-84
2022/09/30 11:09:52;;;;;;;27.10;5.28;;;13.20;99.90;;;;;;5072591;28;20424;-79
2022/09/30 11:12:25;;;;;;;28.65;5.47;;;13.20;99.90;;;;;;5073095;28;20386;-77
2022/09/30 11:15:21;;;;;;;24.92;5.28;;;13.20;99.90;;;;;;5072712;28;20436;-77
2022/09/30 11:18:18;;;;;;;25.67;5.20;;;13.20;99.90;;;;;;5071851;28;20465;-83
2022/09/30 11:21:01;;;;;;;27.17;5.40;;;13.20;99.90;;;;;;5061422;28;20497;-80
2022/09/30 11:24:16;;;;;;;27.98;5.63;;;13.10;99.90;;;;;;5071961;28;20392;-78
2022/09/30 11:26:48;;;;;;;30.08;5.70;;;13.20;99.90;;;;;;4993645;28;20462;-80
2022/09/30 11:29:36;;;;;;;26.50;5.32;;;13.10;99.90;;;;;;5009499;28;20427;-83
2022/09/30 11:32:18;;;;;;;29.30;5.22;;;13.20;99.90;;;;;;4997482;28;20835;-82
2022/09/30 11:35:09;;;;;;;36.25;5.82;;;13.20;99.90;;;;;;5009303;28;20457;-79
2022/09/30 11:38:14;;;;;;;30.10;5.45;;;13.20;99.90;;;;;;5010310;28;20752;-78
2022/09/30 11:40:53;;;;;;;29.80;5.70;;;13.20;99.90;;;;;;5003004;28;20422;-82
2022/09/30 11:43:32;;;;;;;24.50;5.47;;;13.20;99.90;;;;;;5006900;28;20460;-83
2022/09/30 11:46:20;;;;;;;26.08;4.95;;;13.20;99.90;;;;;;5010323;28;20403;-84
2022/09/30 11:48:49;;;;;;;25.00;4.88;;;13.30;99.90;;;;;;5010075;28;20461;-81
2022/09/30 11:51:36;;;;;;;24.45;5.13;;;13.20;99.90;;;;;;5010065;28;20402;-82
2022/09/30 11:54:06;;;;;;;23.23;5.40;;;13.20;99.90;;;;;;4995637;28;20954;-76
2022/09/30 11:56:49;;;;;;;24.75;4.80;;;13.20;99.90;;;;;;5007619;28;20414;-82
2022/09/30 11:59:42;;;;;;;28.48;5.22;;;13.20;99.90;;;;;;5005297;28;20407;-82
2022/09/30 12:02:18;;;;;;;25.60;4.90;;;13.20;99.90;;;;;;4944947;28;20381;-81
2022/09/30 12:04:48;;;;;;;25.90;4.78;;;13.20;99.90;;;;;;4990921;28;21240;-78
2022/09/30 12:07:24;;;;;;;27.83;5.27;;;13.20;99.90;;;;;;4990617;28;20387;-77
2022/09/30 12:10:03;;;;;;;24.05;5.10;;;13.20;99.90;;;;;;4990657;28;20380;-83
2022/09/30 12:12:31;;;;;;;22.75;4.85;;;13.10;99.90;;;;;;4990421;28;20428;-80
2022/09/30 12:15:02;;;;;;;23.63;4.90;;;13.10;99.90;;;;;;4990644;28;20469;-82
2022/09/30 12:17:49;;;;;;;21.63;4.68;;;13.10;99.90;;;;;;4990518;28;20410;-77
2022/09/30 12:20:24;;;;;;;26.92;4.80;;;13.10;99.90;;;;;;4987508;28;20411;-76
2022/09/30 12:23:06;;;;;;;25.23;5.20;;;13.10;99.90;;;;;;4990737;28;20427;-80
2022/09/30 12:25:52;;;;;;;21.65;4.80;;;13.10;99.90;;;;;;4966086;28;20397;-81
2022/09/30 12:31:31;;;;;;;24.73;5.00;;;13.20;99.90;;;;;;4981160;28;20438;-75
2022/09/30 12:34:47;;;;;;;21.17;4.60;;;13.20;99.90;;;;;;4991926;28;20854;-76
2022/09/30 12:37:27;;;;;;;22.63;4.90;;;13.10;99.90;;;;;;4953448;29;20400;-78
2022/09/30 12:39:54;;;;;;;22.30;4.80;;;13.10;99.90;;;;;;4983389;28;20451;-76
2022/09/30 12:42:43;;;;;;;24.05;4.80;;;13.10;99.90;;;;;;4992680;28;20377;-76
2022/09/30 12:45:39;;;;;;;21.00;4.57;;;13.10;99.90;;;;;;5005761;28;20415;-77
2022/09/30 12:48:11;;;;;;;23.15;4.75;;;13.10;99.90;;;;;;4999761;28;20434;-80
2022/09/30 12:50:46;;;;;;;21.25;5.00;;;13.20;99.90;;;;;;5012487;28;20384;-83
2022/09/30 12:53:27;;;;;;;27.13;4.75;;;13.20;99.90;;;;;;5018243;28;20449;-81
2022/09/30 12:56:01;;;;;;;22.55;4.57;;;13.20;99.90;;;;;;5000165;28;20376;-78
2022/09/30 12:58:42;;;;;;;27.55;4.80;;;13.20;99.90;;;;;;5009581;28;20423;-81
2022/09/30 13:01:17;;;;;;;22.70;4.80;;;13.20;99.90;;;;;;4991485;28;20429;-80
2022/09/30 13:04:17;;;;;;;25.50;4.88;;;13.20;99.90;;;;;;4991496;28;20380;-78
2022/09/30 13:06:47;;;;;;;21.98;4.97;;;13.20;99.90;;;;;;4983207;28;21023;-80
2022/09/30 13:09:16;;;;;;;25.98;5.03;;;13.10;99.90;;;;;;4978136;28;20397;-79
2022/09/30 13:12:03;;;;;;;27.15;5.00;;;13.10;99.90;;;;;;4993479;28;20392;-82
2022/09/30 13:14:34;;;;;;;27.25;4.75;;;13.10;99.90;;;;;;4995997;28;20834;-83
2022/09/30 13:17:07;;;;;;;30.63;5.38;;;13.10;99.90;;;;;;4996853;28;20785;-83
2022/09/30 13:19:39;;;;;;;30.95;5.32;;;13.00;99.90;;;;;;5002258;28;20448;-77
2022/09/30 13:22:19;;;;;;;27.45;5.18;;;13.00;99.90;;;;;;4996650;28;20375;-78
2022/09/30 13:25:05;;;;;;;25.87;5.07;;;13.10;99.90;;;;;;5009281;28;20783;-79
2022/09/30 13:27:35;;;;;;;22.05;4.80;;;13.10;99.90;;;;;;5009229;28;20396;-76
2022/09/30 13:30:23;;;;;;;25.80;5.00;;;13.00;99.90;;;;;;5008139;28;20387;-77
2022/09/30 13:32:58;;;;;;;26.23;4.75;;;13.00;99.90;;;;;;5007862;28;20391;-83